Huvudsida
METAR-TAF:

METAR-TAF

Flygplatser :

Iqaluit Airport

Iqaluit, Nunavut, Kanada

latitud: 63-45N, longitud: 068-33W, höjd: 34 m

Aktuellt väderrapport

Denna rapport gjordes för 1 timme och 2 minuter sedan, klockan 08:00 UTC
Vind 5 kt från nord
Temperatur -25°C
Fuktighet 63%
Tryck 1008 hPa
Sikt: 24.1 km
Få moln på en höjd av 4800 ft

METAR: CYFB 070800Z 36005KT 15SM FEW048 M25/M30 A2976 RMK SC2 SLP083

Tid: 04:02 (09:02 UTC)

Väderprognos

Denna rapport gjordes för 3 timmar och 24 minuter sedan, klockan 05:38 UTC
Prognos gäller från 07 kl. 06 UTC till 08 kl. 06 UTC
Vind 5 kt från nord/nordväst
Sikt: 10 km
Få moln på en höjd av 4000 ft
Från 07 kl. 2000 UTC
Vind 10 kt från ost/sydost
Sikt: 10 km
Brutna moln på en höjd av 1500 ft
lätt snö
Blir
från 07 kl. 20 UTC till 07 kl. 22 UTC
Vind 15 kt från sydost

TAF: CYFB 070538Z 0706/0806 34005KT P6SM FEW040 FM072000 12010KT P6SM -SN BKN015 BECMG 0720/0722 14015KT RMK NXT FCST BY 071200Z

Aktuella väderrapporter och prognoser från 4000 flygplatser (METAR- och TAF-rapporter).

De tillgängliga stationerna syns som gula och röda prickar på kartan.

För musen över prickarna för att se namnen på stationerna.

Klicka sedan för att få väderrapporter och prognoser.

För att ändra kartan: Klicka på de gröna knapparna med ett svart kors på för att zooma in; den gröna knappen med ett streck på för att zooma ut; eller på de gröna pilarna för angränsande kartor.


METAR-TAF: